Time;durP1;ratioP1;P1;durP2;ratioP2;P2;SDS_P1;SDS_P2;PMS_P1;PMS_P2;Temp;Humidity;BMP_temperature;BMP_pressure;BME280_temperature;BME280_humidity;BME280_pressure;Samples;Min_cycle;Max_cycle;Signal;HPM_P1;HPM_P2
2024/02/08 00:02:08;;;;;;;2.35;0.85;;;3.70;99.90;;;;;;5077176;28;20037;-84
2024/02/08 00:04:35;;;;;;;2.22;1.52;;;3.70;99.90;;;;;;5078755;28;20016;-85
2024/02/08 00:07:01;;;;;;;2.35;1.20;;;3.70;99.90;;;;;;5100911;28;20024;-85
2024/02/08 00:09:29;;;;;;;2.28;1.40;;;3.70;99.90;;;;;;5102716;28;20489;-85
2024/02/08 00:11:55;;;;;;;2.72;1.05;;;3.70;99.90;;;;;;5085400;28;20024;-84
2024/02/08 00:14:22;;;;;;;3.83;1.15;;;3.80;99.90;;;;;;5084541;28;20085;-84
2024/02/08 00:16:47;;;;;;;2.60;1.45;;;3.70;99.90;;;;;;5102489;28;20055;-85
2024/02/08 00:19:15;;;;;;;4.40;1.30;;;3.70;99.90;;;;;;5094109;28;20017;-85
2024/02/08 00:21:44;;;;;;;2.00;1.55;;;3.70;99.90;;;;;;5061242;28;20040;-84
2024/02/08 00:24:15;;;;;;;2.13;1.30;;;3.70;99.90;;;;;;5065333;28;20482;-85
2024/02/08 00:26:43;;;;;;;3.13;1.13;;;3.80;99.90;;;;;;5075845;28;20024;-85
2024/02/08 00:29:09;;;;;;;4.13;1.40;;;3.80;99.90;;;;;;5073971;28;20124;-86
2024/02/08 00:31:34;;;;;;;3.88;1.65;;;3.70;99.90;;;;;;5058686;28;20059;-85
2024/02/08 00:34:05;;;;;;;2.05;1.38;;;3.70;99.90;;;;;;5069585;28;20032;-86
2024/02/08 00:36:31;;;;;;;2.08;1.33;;;3.70;99.90;;;;;;5069480;28;20040;-86
2024/02/08 00:38:57;;;;;;;4.75;1.75;;;3.70;99.90;;;;;;5082920;28;20054;-85
2024/02/08 00:41:23;;;;;;;3.33;1.65;;;3.70;99.90;;;;;;5095618;22;20044;-57
2024/02/08 00:43:50;;;;;;;3.25;1.90;;;3.70;99.90;;;;;;5076199;28;20082;-59
2024/02/08 00:46:16;;;;;;;3.28;2.25;;;3.60;99.90;;;;;;5073811;28;20021;-59
2024/02/08 00:48:43;;;;;;;5.13;2.15;;;3.70;99.90;;;;;;5066618;28;20028;-59
2024/02/08 00:51:10;;;;;;;2.53;1.77;;;3.70;99.90;;;;;;5041168;28;20592;-58
2024/02/08 00:53:35;;;;;;;4.45;2.50;;;3.70;99.90;;;;;;5046835;28;20486;-59
2024/02/08 00:56:02;;;;;;;4.85;3.03;;;3.70;99.90;;;;;;5045236;28;20033;-57
2024/02/08 00:58:28;;;;;;;6.13;2.65;;;3.80;99.90;;;;;;5029109;28;20029;-59
2024/02/08 01:00:53;;;;;;;6.30;2.05;;;3.80;99.90;;;;;;5049355;28;20024;-57
2024/02/08 01:03:24;;;;;;;4.05;2.63;;;3.80;99.90;;;;;;5045024;28;20140;-57
2024/02/08 01:05:53;;;;;;;3.92;2.40;;;3.80;99.90;;;;;;5051671;28;20468;-54
2024/02/08 01:08:18;;;;;;;3.17;2.40;;;3.80;99.90;;;;;;5055849;28;20036;-56
2024/02/08 01:10:44;;;;;;;4.15;3.10;;;3.70;99.90;;;;;;5056199;28;20037;-54
2024/02/08 01:13:09;;;;;;;4.18;2.33;;;3.70;99.90;;;;;;5055963;28;20449;-57
2024/02/08 01:15:35;;;;;;;10.43;3.00;;;3.70;99.90;;;;;;5056020;28;20029;-57
2024/02/08 01:18:03;;;;;;;4.57;2.55;;;3.70;99.90;;;;;;5055202;28;20083;-54
2024/02/08 01:20:29;;;;;;;7.50;2.92;;;3.80;99.90;;;;;;5056188;28;20032;-56
2024/02/08 01:22:57;;;;;;;7.97;4.28;;;3.70;99.90;;;;;;5055662;28;20036;-55
2024/02/08 01:25:23;;;;;;;5.53;3.05;;;3.70;99.90;;;;;;5055296;28;20531;-56
2024/02/08 01:27:48;;;;;;;5.30;2.92;;;3.70;99.90;;;;;;5054718;28;20060;-57
2024/02/08 01:30:14;;;;;;;9.68;3.10;;;3.70;99.90;;;;;;5055052;28;20032;-55
2024/02/08 01:32:40;;;;;;;4.53;2.40;;;3.80;99.90;;;;;;5054899;28;20033;-56
2024/02/08 01:35:07;;;;;;;6.28;3.08;;;3.80;99.90;;;;;;5044281;28;20055;-57
2024/02/08 01:37:38;;;;;;;3.90;2.35;;;3.70;99.90;;;;;;5055019;28;20025;-57
2024/02/08 01:40:08;;;;;;;8.93;3.35;;;3.70;99.90;;;;;;5054412;28;20021;-57
2024/02/08 01:42:37;;;;;;;4.32;2.38;;;3.70;99.90;;;;;;5048807;28;20075;-54
2024/02/08 01:45:24;;;;;;;6.25;2.65;;;3.60;99.90;;;;;;5053770;28;20089;-56
2024/02/08 01:47:50;;;;;;;7.63;3.00;;;3.70;99.90;;;;;;5050249;28;20021;-58
2024/02/08 01:50:18;;;;;;;5.35;3.10;;;3.60;99.90;;;;;;5054452;28;20035;-54
2024/02/08 01:52:44;;;;;;;4.88;2.83;;;3.70;99.90;;;;;;5030406;28;20045;-57
2024/02/08 01:55:10;;;;;;;8.45;3.63;;;3.70;99.90;;;;;;5052786;28;20032;-55
2024/02/08 01:57:36;;;;;;;5.20;2.38;;;3.60;99.90;;;;;;5054784;28;20025;-56
2024/02/08 02:00:02;;;;;;;9.20;2.97;;;3.60;99.90;;;;;;5054540;28;20025;-54
2024/02/08 02:02:35;;;;;;;5.45;3.70;;;3.60;99.90;;;;;;5053961;28;20032;-54
2024/02/08 02:05:01;;;;;;;10.60;3.08;;;3.60;99.90;;;;;;5054713;28;20106;-54
2024/02/08 02:07:28;;;;;;;4.63;2.80;;;3.60;99.90;;;;;;5054566;28;20036;-54
2024/02/08 02:09:54;;;;;;;8.68;3.25;;;3.60;99.90;;;;;;5054513;28;20025;-53
2024/02/08 02:12:22;;;;;;;9.55;3.17;;;3.60;99.90;;;;;;5054183;28;20095;-53
2024/02/08 02:14:49;;;;;;;6.38;3.00;;;3.60;99.90;;;;;;5053507;28;20052;-54
2024/02/08 02:17:16;;;;;;;6.95;3.33;;;3.60;99.90;;;;;;5053981;28;20033;-56
2024/02/08 02:19:42;;;;;;;5.72;3.38;;;3.60;99.90;;;;;;5034332;28;20059;-56
2024/02/08 02:22:09;;;;;;;8.23;3.83;;;3.60;99.90;;;;;;5034893;28;20414;-55
2024/02/08 02:24:45;;;;;;;6.30;3.55;;;3.60;99.90;;;;;;5049722;28;20495;-55
2024/02/08 02:27:11;;;;;;;8.82;3.55;;;3.60;99.90;;;;;;5054250;28;20564;-54
2024/02/08 02:29:38;;;;;;;7.07;3.35;;;3.60;99.90;;;;;;5053737;28;20021;-55
2024/02/08 02:32:06;;;;;;;11.00;3.38;;;3.70;99.90;;;;;;5054437;28;20033;-54
2024/02/08 02:34:34;;;;;;;7.97;3.97;;;3.60;99.90;;;;;;5053643;28;20108;-56
2024/02/08 02:37:00;;;;;;;7.10;4.22;;;3.60;99.90;;;;;;5054101;28;20021;-54
2024/02/08 02:39:30;;;;;;;7.63;4.13;;;3.60;99.90;;;;;;5053888;28;20040;-54
2024/02/08 02:41:57;;;;;;;9.60;3.80;;;3.70;99.90;;;;;;5053458;28;20025;-55
2024/02/08 02:44:22;;;;;;;7.10;4.43;;;3.60;99.90;;;;;;5042621;28;20032;-57
2024/02/08 02:46:49;;;;;;;9.70;4.53;;;3.60;99.90;;;;;;5046410;28;20029;-56
2024/02/08 02:49:17;;;;;;;10.02;4.53;;;3.70;99.90;;;;;;5054257;28;20021;-56
2024/02/08 02:51:48;;;;;;;10.38;4.72;;;3.70;99.90;;;;;;5034734;28;20112;-57
2024/02/08 02:54:19;;;;;;;8.50;4.40;;;3.70;99.90;;;;;;5049242;28;20041;-55
2024/02/08 02:56:50;;;;;;;10.63;4.38;;;3.70;99.90;;;;;;5054187;28;20033;-57
2024/02/08 02:59:16;;;;;;;10.60;3.97;;;3.70;99.90;;;;;;5054117;28;20032;-56
2024/02/08 03:01:49;;;;;;;15.65;4.35;;;3.70;99.90;;;;;;5053475;28;20036;-54
2024/02/08 03:04:18;;;;;;;13.63;3.72;;;3.70;99.90;;;;;;5030206;28;20025;-56
2024/02/08 03:06:48;;;;;;;9.07;4.22;;;3.60;99.90;;;;;;5043102;28;20494;-57
2024/02/08 03:09:17;;;;;;;10.90;4.63;;;3.70;99.90;;;;;;5045848;28;20112;-54
2024/02/08 03:11:45;;;;;;;8.32;4.70;;;3.60;99.90;;;;;;5054439;28;20040;-55
2024/02/08 03:14:11;;;;;;;7.53;4.18;;;3.70;99.90;;;;;;5053768;28;20025;-54
2024/02/08 03:16:37;;;;;;;9.55;4.78;;;3.70;99.90;;;;;;5053765;28;20116;-56
2024/02/08 03:19:06;;;;;;;11.70;5.10;;;3.70;99.90;;;;;;5053375;28;20101;-56
2024/02/08 03:21:36;;;;;;;8.48;4.40;;;3.70;99.90;;;;;;5035815;28;20029;-57
2024/02/08 03:24:08;;;;;;;10.27;4.55;;;3.70;99.90;;;;;;5051749;28;20025;-56
2024/02/08 03:26:40;;;;;;;13.27;5.38;;;3.70;99.90;;;;;;5053728;28;20112;-55
2024/02/08 03:29:12;;;;;;;15.30;5.00;;;3.70;99.90;;;;;;5057558;28;20021;-54
2024/02/08 03:31:47;;;;;;;12.82;5.32;;;3.80;99.90;;;;;;5056815;28;20060;-57
2024/02/08 03:34:23;;;;;;;15.75;5.57;;;3.80;99.90;;;;;;5057263;28;20116;-57
2024/02/08 03:36:49;;;;;;;15.48;5.70;;;3.70;99.90;;;;;;5056934;28;20029;-57
2024/02/08 03:39:24;;;;;;;10.80;4.93;;;3.70;99.90;;;;;;5046690;28;20112;-57
2024/02/08 03:42:06;;;;;;;12.45;4.93;;;3.70;99.90;;;;;;5037880;28;20030;-55
2024/02/08 03:44:33;;;;;;;10.80;5.63;;;3.70;99.90;;;;;;5047355;28;20088;-56
2024/02/08 03:47:04;;;;;;;11.63;5.22;;;3.70;99.90;;;;;;5050844;28;20070;-55
2024/02/08 03:49:33;;;;;;;14.05;5.88;;;3.70;99.90;;;;;;5056573;28;20021;-55
2024/02/08 03:51:59;;;;;;;10.13;4.50;;;3.70;99.90;;;;;;5023867;28;20040;-55
2024/02/08 03:54:25;;;;;;;10.18;4.55;;;3.70;99.90;;;;;;5054420;28;20425;-55
2024/02/08 03:56:51;;;;;;;8.02;5.15;;;3.70;99.90;;;;;;5057133;28;20096;-57
2024/02/08 03:59:26;;;;;;;8.68;4.68;;;3.60;99.90;;;;;;5056209;28;20029;-56
2024/02/08 04:02:03;;;;;;;9.55;4.75;;;3.60;99.90;;;;;;5056529;28;20043;-57
2024/02/08 04:04:50;;;;;;;12.52;4.38;;;3.70;99.90;;;;;;5056553;28;20094;-58
2024/02/08 04:07:22;;;;;;;9.55;4.03;;;3.70;99.90;;;;;;5048944;28;20083;-57
2024/02/08 04:09:55;;;;;;;8.15;5.00;;;3.70;99.90;;;;;;5056432;28;20025;-57
2024/02/08 04:53:55;;;;;;;14.80;5.00;;;3.60;99.90;;;;;;5030532;28;20449;-55
2024/02/08 04:56:21;;;;;;;9.65;5.45;;;3.60;99.90;;;;;;5036592;28;20029;-57
2024/02/08 04:58:46;;;;;;;23.73;6.60;;;3.60;99.90;;;;;;5055236;28;20051;-54
2024/02/08 05:01:13;;;;;;;22.48;5.35;;;3.60;99.90;;;;;;5055306;28;20028;-58
2024/02/08 05:03:42;;;;;;;8.50;4.78;;;3.60;99.90;;;;;;5055615;28;20100;-58
2024/02/08 05:06:14;;;;;;;16.63;5.72;;;3.70;99.90;;;;;;5054662;28;20372;-57
2024/02/08 05:08:46;;;;;;;12.53;5.83;;;3.70;99.90;;;;;;5054786;28;20104;-57
2024/02/08 05:11:14;;;;;;;15.20;6.50;;;3.70;99.90;;;;;;5054362;28;20260;-57
2024/02/08 05:13:41;;;;;;;12.40;4.90;;;3.60;99.90;;;;;;5054357;28;20021;-59
2024/02/08 05:16:10;;;;;;;14.60;5.43;;;3.60;99.90;;;;;;5055753;28;20099;-58
2024/02/08 05:18:36;;;;;;;13.70;5.40;;;3.60;99.90;;;;;;5055209;28;20502;-57
2024/02/08 05:21:05;;;;;;;14.18;5.53;;;3.60;99.90;;;;;;5054453;28;20017;-58
2024/02/08 05:23:33;;;;;;;18.20;6.70;;;3.60;99.90;;;;;;5055468;28;20033;-57
2024/02/08 05:25:59;;;;;;;14.35;6.10;;;3.60;99.90;;;;;;5055208;28;20383;-58
2024/02/08 05:28:26;;;;;;;12.95;5.35;;;3.70;99.90;;;;;;5054278;28;20049;-58
2024/02/08 05:30:52;;;;;;;14.65;5.38;;;3.70;99.90;;;;;;5050100;28;20131;-56
2024/02/08 05:33:18;;;;;;;15.38;5.40;;;3.70;99.90;;;;;;5054735;28;20028;-57
2024/02/08 05:35:44;;;;;;;16.27;6.50;;;3.70;99.90;;;;;;5054462;28;20078;-58
2024/02/08 05:38:10;;;;;;;15.93;6.15;;;3.70;99.90;;;;;;5054143;28;20485;-58
2024/02/08 05:40:40;;;;;;;12.60;5.93;;;3.70;99.90;;;;;;5054845;28;20064;-56
2024/02/08 05:43:07;;;;;;;9.73;4.97;;;3.70;99.90;;;;;;5055489;28;20037;-57
2024/02/08 05:45:33;;;;;;;11.13;5.43;;;3.80;99.90;;;;;;5054979;28;20036;-58
2024/02/08 05:48:05;;;;;;;13.57;6.13;;;3.70;99.90;;;;;;5054270;28;20024;-57
2024/02/08 05:50:34;;;;;;;15.48;6.50;;;3.70;99.90;;;;;;5054021;28;20033;-57
2024/02/08 05:53:06;;;;;;;14.32;5.75;;;3.70;99.90;;;;;;5043768;28;20037;-56
2024/02/08 05:55:34;;;;;;;11.35;5.82;;;3.70;99.90;;;;;;5054452;28;20055;-55
2024/02/08 05:58:03;;;;;;;14.82;5.68;;;3.70;99.90;;;;;;5054732;28;20483;-55
2024/02/08 06:00:35;;;;;;;11.77;5.18;;;3.70;99.90;;;;;;5054303;28;20079;-57
2024/02/08 06:03:03;;;;;;;16.13;5.18;;;3.70;99.90;;;;;;5055208;28;20116;-58
2024/02/08 06:05:31;;;;;;;14.27;6.68;;;3.80;99.90;;;;;;5054104;28;20090;-58
2024/02/08 06:08:02;;;;;;;15.00;5.13;;;3.80;99.90;;;;;;5054698;28;20029;-58
2024/02/08 06:10:45;;;;;;;14.85;6.05;;;3.70;99.90;;;;;;5053761;28;20061;-56
2024/02/08 06:13:14;;;;;;;14.07;5.95;;;3.80;99.90;;;;;;5054553;28;20029;-58
2024/02/08 06:15:43;;;;;;;14.85;6.25;;;3.80;99.90;;;;;;5053541;28;20033;-58
2024/02/08 06:18:19;;;;;;;15.52;6.35;;;3.80;99.90;;;;;;5054038;28;20083;-57
2024/02/08 06:20:51;;;;;;;14.35;6.85;;;3.80;99.90;;;;;;5046012;28;20053;-56
2024/02/08 06:23:23;;;;;;;14.25;5.50;;;3.80;99.90;;;;;;5052779;28;20425;-54
2024/02/08 06:28:41;;;;;;;14.82;5.72;;;3.80;99.90;;;;;;5054296;28;20099;-58
2024/02/08 06:31:07;;;;;;;14.23;6.05;;;3.70;99.90;;;;;;5053792;28;20017;-58
2024/02/08 06:33:42;;;;;;;17.17;5.82;;;3.70;99.90;;;;;;5053660;28;20025;-58
2024/02/08 06:36:08;;;;;;;20.95;6.40;;;3.80;99.90;;;;;;5053995;28;20132;-57
2024/02/08 06:38:43;;;;;;;17.80;6.47;;;3.80;99.90;;;;;;5053789;28;20036;-56
2024/02/08 06:41:23;;;;;;;10.23;5.40;;;3.80;99.90;;;;;;5053395;28;20086;-57
2024/02/08 06:44:42;;;;;;;11.32;5.82;;;3.70;99.90;;;;;;5052140;28;20029;-55
2024/02/08 06:46:48;;;;;;;12.93;5.30;;;3.80;99.90;;;;;;5052906;28;20025;-58
2024/02/08 07:39:21;;;;;;;13.52;5.07;;;3.90;99.90;;;;;;5052872;28;20498;-59
2024/02/08 07:41:40;;;;;;;16.60;5.30;;;3.90;99.90;;;;;;5048878;28;20027;-59
2024/02/08 07:44:09;;;;;;;13.05;5.22;;;3.90;99.90;;;;;;5052373;28;20274;-60
2024/02/08 07:46:40;;;;;;;10.38;5.35;;;4.10;99.90;;;;;;5051467;28;20020;-59
2024/02/08 07:49:05;;;;;;;12.75;5.75;;;4.00;99.90;;;;;;5050739;28;20487;-59
2024/02/08 07:51:33;;;;;;;11.57;5.25;;;4.10;99.90;;;;;;5052292;28;20028;-58
2024/02/08 07:53:59;;;;;;;11.35;4.32;;;4.10;99.90;;;;;;5050964;28;20529;-59
2024/02/08 07:56:40;;;;;;;9.70;4.53;;;4.10;99.90;;;;;;5027178;28;20049;-60
2024/02/08 07:59:15;;;;;;;10.85;4.68;;;4.10;99.90;;;;;;5052521;28;20033;-60
2024/02/08 08:01:49;;;;;;;13.30;5.22;;;4.10;99.90;;;;;;5051436;28;20060;-58
2024/02/08 08:04:41;;;;;;;9.80;4.63;;;4.20;99.90;;;;;;5050599;28;20029;-60
2024/02/08 08:07:01;;;;;;;8.70;4.28;;;4.20;99.90;;;;;;5051057;28;20041;-60
2024/02/08 08:09:26;;;;;;;11.63;5.03;;;4.30;99.90;;;;;;5047857;28;20043;-59
2024/02/08 08:11:52;;;;;;;10.63;3.90;;;4.20;99.90;;;;;;5050413;28;20057;-60
2024/02/08 08:17:40;;;;;;;11.88;4.47;;;4.20;99.90;;;;;;5054541;28;20510;-60
2024/02/08 08:19:53;;;;;;;10.55;4.03;;;4.30;99.90;;;;;;5045271;28;20407;-58
2024/02/08 08:22:50;;;;;;;8.77;4.13;;;4.40;99.90;;;;;;5050624;28;20024;-60
2024/02/08 08:28:09;;;;;;;7.43;3.72;;;4.40;99.90;;;;;;5051538;28;20072;-58
2024/02/08 08:30:38;;;;;;;7.00;3.40;;;4.50;99.90;;;;;;5046116;28;20108;-59
2024/02/08 08:35:53;;;;;;;6.78;3.92;;;4.60;99.90;;;;;;5050512;28;20029;-59
2024/02/08 08:40:48;;;;;;;7.07;3.67;;;4.70;99.90;;;;;;5049248;28;20696;-57
2024/02/08 08:43:22;;;;;;;7.03;3.20;;;4.80;99.90;;;;;;5048983;28;20036;-59
2024/02/08 08:45:52;;;;;;;8.32;3.47;;;4.90;99.90;;;;;;5049836;28;20029;-59
2024/02/08 08:48:21;;;;;;;6.40;4.13;;;5.00;99.90;;;;;;5048704;28;20040;-59
2024/02/08 08:50:57;;;;;;;8.70;3.67;;;5.20;99.90;;;;;;5050941;28;20037;-60
2024/02/08 08:53:27;;;;;;;5.00;2.80;;;5.20;99.90;;;;;;5051373;28;20029;-59
2024/02/08 08:55:57;;;;;;;8.38;2.80;;;5.30;99.90;;;;;;5021312;28;20063;-59
2024/02/08 08:58:38;;;;;;;5.15;2.47;;;5.30;99.90;;;;;;5049455;28;20086;-60
2024/02/08 09:01:21;;;;;;;3.70;2.22;;;5.30;99.90;;;;;;5051487;28;20029;-60
2024/02/08 09:04:10;;;;;;;4.07;1.65;;;5.30;99.90;;;;;;5048908;28;20560;-60
2024/02/08 09:06:42;;;;;;;7.50;2.60;;;5.20;99.90;;;;;;5051028;28;20083;-60
2024/02/08 09:11:57;;;;;;;3.55;2.22;;;5.20;99.90;;;;;;5044400;28;20490;-60
2024/02/08 09:14:30;;;;;;;6.88;2.42;;;5.30;99.90;;;;;;5051832;28;20017;-60
2024/02/08 09:17:02;;;;;;;5.50;2.15;;;5.30;99.90;;;;;;5051296;28;20033;-59
2024/02/08 09:19:29;;;;;;;7.63;2.85;;;5.20;99.90;;;;;;5050246;28;20057;-59
2024/02/08 09:22:03;;;;;;;4.32;2.47;;;5.30;99.90;;;;;;5050666;28;20491;-58
2024/02/08 09:24:28;;;;;;;;;;;5.30;99.90;;;;;;5045285;28;20100;-60
2024/02/08 09:29:50;;;;;;;4.22;2.20;;;5.40;99.90;;;;;;5045556;28;20040;-59
2024/02/08 09:32:43;;;;;;;4.60;2.63;;;5.40;99.90;;;;;;5050974;28;20581;-60
2024/02/08 09:35:16;;;;;;;3.90;2.28;;;5.40;99.90;;;;;;5051181;28;20033;-58
2024/02/08 09:37:45;;;;;;;5.93;2.33;;;5.40;99.90;;;;;;5051200;28;20399;-60
2024/02/08 09:42:57;;;;;;;4.65;2.13;;;5.50;99.90;;;;;;5049959;28;20037;-59
2024/02/08 09:48:10;;;;;;;4.00;2.28;;;5.50;99.90;;;;;;5050422;28;20499;-60
2024/02/08 09:50:37;;;;;;;3.72;2.15;;;5.50;99.90;;;;;;5046168;28;20104;-60
2024/02/08 09:53:15;;;;;;;3.83;2.05;;;5.60;99.90;;;;;;5047821;28;20033;-60
2024/02/08 09:55:45;;;;;;;3.60;2.78;;;5.60;99.90;;;;;;5030436;28;20135;-60
2024/02/08 09:58:13;;;;;;;4.18;2.10;;;5.60;99.90;;;;;;5050611;28;20040;-60
2024/02/08 10:00:54;;;;;;;3.67;2.03;;;5.60;99.90;;;;;;5050323;28;20021;-60
2024/02/08 10:03:36;;;;;;;4.22;2.30;;;5.60;99.90;;;;;;5050238;28;20063;-60
2024/02/08 10:06:12;;;;;;;3.75;2.17;;;5.70;99.90;;;;;;5049654;28;20025;-59
2024/02/08 10:09:08;;;;;;;3.15;2.13;;;5.70;99.90;;;;;;5045405;28;20082;-60
2024/02/08 10:11:43;;;;;;;4.30;2.50;;;5.60;99.90;;;;;;5045925;28;20082;-58
2024/02/08 10:14:25;;;;;;;3.83;2.13;;;5.60;99.90;;;;;;5048875;28;20033;-60
2024/02/08 10:17:00;;;;;;;3.88;2.00;;;5.50;99.90;;;;;;5046132;28;20557;-59
2024/02/08 10:21:57;;;;;;;3.35;2.10;;;5.60;99.90;;;;;;5047318;28;20078;-60
2024/02/08 10:24:44;;;;;;;3.47;2.05;;;5.50;99.90;;;;;;5045815;28;20449;-60
2024/02/08 10:27:19;;;;;;;5.50;3.00;;;5.40;99.90;;;;;;5055445;28;20503;-60
2024/02/08 10:30:05;;;;;;;4.15;1.98;;;5.40;99.90;;;;;;5046836;28;20048;-60
2024/02/08 10:32:34;;;;;;;4.20;2.47;;;5.40;99.90;;;;;;5046290;28;20029;-60
2024/02/08 10:35:20;;;;;;;5.10;2.83;;;5.40;99.90;;;;;;5050513;28;20560;-60
2024/02/08 10:37:55;;;;;;;7.88;2.40;;;5.60;99.90;;;;;;5045261;28;20037;-59
2024/02/08 10:40:32;;;;;;;9.30;4.95;;;5.50;99.90;;;;;;5050143;28;20027;-59
2024/02/08 10:42:58;;;;;;;10.20;4.32;;;5.50;99.90;;;;;;5048963;28;20029;-57
2024/02/08 10:45:24;;;;;;;6.45;2.78;;;5.50;99.90;;;;;;5048000;28;20506;-59
2024/02/08 10:47:55;;;;;;;9.88;5.03;;;5.50;99.90;;;;;;5048974;28;20029;-60
2024/02/08 10:50:24;;;;;;;12.75;6.03;;;5.50;99.90;;;;;;5048898;28;20083;-60
2024/02/08 10:52:51;;;;;;;18.60;8.65;;;5.50;99.90;;;;;;5048231;28;20029;-60
2024/02/08 10:55:30;;;;;;;8.35;5.28;;;5.40;99.90;;;;;;5033111;28;20500;-60
2024/02/08 11:03:33;;;;;;;6.72;3.45;;;5.40;99.90;;;;;;5049370;28;20032;-59
2024/02/08 11:06:04;;;;;;;4.43;2.92;;;5.50;99.90;;;;;;5044187;28;20044;-59
2024/02/08 11:08:33;;;;;;;11.20;7.35;;;5.50;99.90;;;;;;5048632;28;20498;-59
2024/02/08 11:11:12;;;;;;;4.60;2.92;;;5.50;99.90;;;;;;5048670;28;20064;-59
2024/02/08 11:13:45;;;;;;;6.68;3.85;;;5.50;99.90;;;;;;5045089;28;20120;-60
2024/02/08 11:16:20;;;;;;;3.65;2.50;;;5.50;99.90;;;;;;5047426;28;20029;-60
2024/02/08 11:18:51;;;;;;;4.43;2.45;;;5.50;99.90;;;;;;5048831;28;20049;-57
2024/02/08 11:21:36;;;;;;;4.50;2.67;;;5.60;99.90;;;;;;5047561;28;20493;-60
2024/02/08 11:24:07;;;;;;;6.15;3.97;;;5.60;99.90;;;;;;5048768;28;20028;-58
2024/02/08 11:26:34;;;;;;;4.68;2.25;;;5.50;99.90;;;;;;5049741;28;20017;-60
2024/02/08 11:29:18;;;;;;;3.45;2.03;;;5.50;99.90;;;;;;5049590;28;20025;-60
2024/02/08 11:31:46;;;;;;;;;;;5.50;99.90;;;;;;5050246;28;20029;-60
2024/02/08 11:34:15;;;;;;;4.13;2.00;;;5.50;99.90;;;;;;5049176;28;19941;-59
2024/02/08 11:36:52;;;;;;;4.85;2.70;;;5.60;99.90;;;;;;5048835;28;20166;-59
2024/02/08 11:39:34;;;;;;;3.78;1.80;;;5.60;99.90;;;;;;5042521;28;20104;-59
2024/02/08 11:42:00;;;;;;;4.68;2.08;;;5.50;99.90;;;;;;5044134;28;20079;-60
2024/02/08 11:44:28;;;;;;;3.65;2.00;;;5.60;99.90;;;;;;5053436;28;20025;-58
2024/02/08 11:47:00;;;;;;;12.02;6.53;;;5.60;99.90;;;;;;5044382;28;20395;-60
2024/02/08 11:49:31;;;;;;;4.82;2.17;;;5.60;99.90;;;;;;5030287;28;20053;-59
2024/02/08 11:52:06;;;;;;;4.10;2.53;;;5.70;99.90;;;;;;5052373;28;20108;-60
2024/02/08 11:54:37;;;;;;;17.73;14.93;;;5.70;99.90;;;;;;5052277;28;20036;-59
2024/02/08 11:57:07;;;;;;;2.38;1.80;;;5.60;99.90;;;;;;5018724;28;20119;-58
2024/02/08 11:59:36;;;;;;;3.03;1.20;;;5.70;99.90;;;;;;5046612;28;20036;-59
2024/02/08 12:02:07;;;;;;;2.90;1.40;;;5.80;99.90;;;;;;5047258;28;20055;-58
2024/02/08 12:04:37;;;;;;;26.67;15.15;;;5.90;99.90;;;;;;5052362;28;20059;-59
2024/02/08 12:07:04;;;;;;;2.92;1.90;;;5.90;99.90;;;;;;5044030;28;20033;-59
2024/02/08 12:09:31;;;;;;;13.55;7.78;;;6.00;99.90;;;;;;5051797;28;20075;-60
2024/02/08 12:11:58;;;;;;;2.05;1.67;;;6.10;99.90;;;;;;5049588;28;20150;-59
2024/02/08 12:14:26;;;;;;;3.63;2.28;;;6.10;99.90;;;;;;5052541;28;20031;-60
2024/02/08 12:16:58;;;;;;;1.80;1.20;;;6.20;99.90;;;;;;5047303;28;20045;-59
2024/02/08 12:19:25;;;;;;;3.97;3.17;;;6.30;99.90;;;;;;5050895;28;20033;-59
2024/02/08 12:22:03;;;;;;;2.58;1.77;;;6.30;99.90;;;;;;5054373;28;20025;-59
2024/02/08 12:24:34;;;;;;;1.80;1.33;;;6.40;99.90;;;;;;5051837;28;20669;-60
2024/02/08 12:27:07;;;;;;;1.88;1.08;;;6.40;99.90;;;;;;5051496;28;20037;-60
2024/02/08 12:29:37;;;;;;;2.92;1.65;;;6.50;99.90;;;;;;5046181;28;20506;-60
2024/02/08 12:32:05;;;;;;;2.40;1.50;;;6.50;99.90;;;;;;5046206;28;20095;-59
2024/02/08 12:34:32;;;;;;;3.17;1.20;;;6.40;99.90;;;;;;5052198;28;20108;-60
2024/02/08 12:37:06;;;;;;;3.10;2.13;;;6.40;99.90;;;;;;5033858;28;20032;-60
2024/02/08 12:39:38;;;;;;;3.35;2.60;;;6.50;99.90;;;;;;5051314;28;20045;-60
2024/02/08 12:42:05;;;;;;;3.47;1.88;;;6.60;99.90;;;;;;5051850;28;20037;-59
2024/02/08 12:44:34;;;;;;;2.55;1.60;;;6.60;99.90;;;;;;5050211;28;20915;-59
2024/02/08 12:47:01;;;;;;;4.90;1.52;;;6.70;99.90;;;;;;5045964;28;20052;-59
2024/02/08 12:49:27;;;;;;;2.47;1.20;;;6.80;99.90;;;;;;5046346;28;20048;-59
2024/02/08 12:51:59;;;;;;;1.45;1.25;;;6.70;99.90;;;;;;5044368;28;20033;-59
2024/02/08 12:54:25;;;;;;;3.17;1.10;;;6.80;99.90;;;;;;5045870;28;20027;-59
2024/02/08 12:57:07;;;;;;;2.38;1.50;;;6.80;99.90;;;;;;5024794;28;20056;-59
2024/02/08 12:59:36;;;;;;;4.07;1.27;;;6.80;99.90;;;;;;5041015;28;20029;-59
2024/02/08 13:02:08;;;;;;;2.80;1.35;;;6.90;99.90;;;;;;5038160;28;20086;-59
2024/02/08 13:04:36;;;;;;;1.45;1.10;;;7.00;99.90;;;;;;5050089;28;20075;-59
2024/02/08 13:07:04;;;;;;;1.20;0.90;;;7.10;99.90;;;;;;5075835;22;20040;-64
2024/02/08 13:09:35;;;;;;;2.67;1.38;;;7.10;99.90;;;;;;5069101;28;20448;-62
2024/02/08 13:12:14;;;;;;;1.55;1.00;;;7.20;99.90;;;;;;5051732;28;20028;-62
2024/02/08 13:15:05;;;;;;;1.50;1.17;;;7.20;99.90;;;;;;5066525;28;20016;-62
2024/02/08 13:17:34;;;;;;;2.33;1.25;;;7.20;99.90;;;;;;5063411;28;20070;-62
2024/02/08 13:20:11;;;;;;;5.47;1.45;;;7.20;99.90;;;;;;5051043;28;20032;-62
2024/02/08 13:22:38;;;;;;;4.28;2.35;;;7.20;99.90;;;;;;5051154;28;20036;-63
2024/02/08 13:25:12;;;;;;;3.10;2.00;;;7.20;99.90;;;;;;5050593;28;20021;-62
2024/02/08 13:27:39;;;;;;;4.45;2.28;;;7.20;99.90;;;;;;5051602;28;20422;-62
2024/02/08 13:30:17;;;;;;;3.13;1.50;;;7.30;99.90;;;;;;5047976;28;20024;-63
2024/02/08 13:32:44;;;;;;;2.83;1.65;;;7.30;99.90;;;;;;5050264;28;20029;-63
2024/02/08 13:35:18;;;;;;;2.40;1.65;;;7.40;99.90;;;;;;5050068;28;20037;-64
2024/02/08 13:37:45;;;;;;;1.83;1.27;;;7.50;99.90;;;;;;5050177;28;20033;-62
2024/02/08 13:40:11;;;;;;;1.88;1.40;;;7.60;99.90;;;;;;5029871;28;20057;-63
2024/02/08 13:42:38;;;;;;;6.00;3.15;;;7.70;99.90;;;;;;5050904;28;20041;-62
2024/02/08 13:45:05;;;;;;;4.18;2.28;;;7.70;99.90;;;;;;5050322;28;20025;-62
2024/02/08 13:47:40;;;;;;;4.32;2.40;;;7.60;99.90;;;;;;5050190;28;20367;-61
2024/02/08 13:50:11;;;;;;;3.60;2.00;;;7.60;99.90;;;;;;5049397;28;20036;-62
2024/02/08 13:52:38;;;;;;;10.15;4.03;;;7.60;99.90;;;;;;5047721;28;20029;-63
2024/02/08 13:55:07;;;;;;;8.98;4.72;;;7.60;99.90;;;;;;5048821;28;20037;-63
2024/02/08 13:57:38;;;;;;;4.90;2.50;;;7.70;99.90;;;;;;5031056;28;20117;-63
2024/02/08 14:00:08;;;;;;;4.00;2.35;;;7.80;99.90;;;;;;5048336;28;20111;-63
2024/02/08 14:02:36;;;;;;;2.45;1.80;;;7.80;99.90;;;;;;5048647;28;20021;-63
2024/02/08 14:05:10;;;;;;;4.32;2.72;;;7.90;99.90;;;;;;5043219;28;20071;-63
2024/02/08 14:07:43;;;;;;;3.75;1.60;;;7.90;99.90;;;;;;5048038;28;20257;-62
2024/02/08 14:10:12;;;;;;;2.78;1.33;;;7.90;99.90;;;;;;5049494;28;20166;-62
2024/02/08 14:12:45;;;;;;;2.38;1.50;;;7.90;99.90;;;;;;5049804;28;20474;-63
2024/02/08 14:15:12;;;;;;;1.95;1.10;;;8.00;99.90;;;;;;5049934;28;20036;-63
2024/02/08 14:17:41;;;;;;;2.60;1.40;;;8.00;99.90;;;;;;5049206;28;20039;-63
2024/02/08 14:20:52;;;;;;;4.68;1.23;;;8.00;99.90;;;;;;5048841;28;20415;-60
2024/02/08 14:22:59;;;;;;;3.05;1.55;;;8.10;99.90;;;;;;5033524;28;20037;-62
2024/02/08 14:25:48;;;;;;;3.05;1.90;;;8.00;99.90;;;;;;5048774;28;20032;-63
2024/02/08 14:28:19;;;;;;;4.55;2.22;;;8.00;99.90;;;;;;5046826;28;20490;-63
2024/02/08 14:30:45;;;;;;;4.60;2.55;;;8.00;99.90;;;;;;5048149;28;20045;-63
2024/02/08 14:33:11;;;;;;;4.70;1.85;;;8.00;99.90;;;;;;5046732;28;20529;-63
2024/02/08 14:35:38;;;;;;;3.58;2.00;;;8.00;99.90;;;;;;5048959;28;20029;-62
2024/02/08 14:38:05;;;;;;;3.40;1.50;;;8.00;99.90;;;;;;5050773;28;20445;-64
2024/02/08 14:40:31;;;;;;;2.17;1.48;;;8.00;99.90;;;;;;5049814;28;20027;-63
2024/02/08 14:42:57;;;;;;;2.80;1.70;;;8.00;99.90;;;;;;5048806;28;20044;-61
2024/02/08 14:45:35;;;;;;;2.08;1.35;;;8.00;99.90;;;;;;5045485;28;20451;-64
2024/02/08 14:48:04;;;;;;;5.07;1.58;;;8.00;99.90;;;;;;5049069;28;20032;-63
2024/02/08 14:53:17;;;;;;;3.05;1.85;;;8.00;99.90;;;;;;5045229;28;20094;-62
2024/02/08 14:55:45;;;;;;;3.80;1.58;;;8.00;99.90;;;;;;5044130;28;20108;-63
2024/02/08 15:01:30;;;;;;;3.78;1.80;;;7.90;99.90;;;;;;5050227;28;20117;-62
2024/02/08 15:03:58;;;;;;;2.95;2.00;;;7.90;99.90;;;;;;5049069;28;20025;-62
2024/02/08 15:06:39;;;;;;;2.97;2.10;;;7.90;99.90;;;;;;5048931;28;20399;-62
2024/02/08 15:14:36;;;;;;;3.03;2.00;;;8.00;99.90;;;;;;5046664;28;20390;-61
2024/02/08 15:17:10;;;;;;;3.22;1.98;;;8.00;99.90;;;;;;5047140;28;20037;-64
2024/02/08 15:19:46;;;;;;;5.00;2.33;;;8.00;99.90;;;;;;5047131;28;20068;-63
2024/02/08 15:25:03;;;;;;;8.02;3.67;;;8.10;99.90;;;;;;5054869;28;20029;-62
2024/02/08 15:27:34;;;;;;;50.97;18.52;;;8.10;99.90;;;;;;5053515;28;20027;-62
2024/02/08 15:30:19;;;;;;;63.55;21.92;;;8.10;99.90;;;;;;5053277;28;20483;-62
2024/02/08 15:35:26;;;;;;;62.33;21.40;;;8.20;99.90;;;;;;5052120;28;20033;-63